Latest Weather Observations for Double Island Point

IDQ60901

Issued at 7:11 am EST Friday 21 June 2019 (issued every 10 minutes, with the page automatically refreshed every 10 minutes)

About weather observations | Map of Brisbane area stations | Latest observations for Brisbane area | Other Formats
Station Details ID: 040068 Name: DOUBLE ISLAND POINT LIGHTHOUSE Lat: -25.93 Lon: 153.19 Height: 95.64 m
Data from the previous 72 hours. | See also: Recent months at Double Island Point
Date/Time
EST
Temp
°C
App
Temp
°C
Dew
Point
°C
Rel
Hum
%
Delta-T
°C
Wind Press
QNH
hPa
Press
MSL
hPa
Rain since
9am
mm
Dir  Spd
km/h
Gust
km/h
Spd
kts
Gust
kts
21/07:00am 16.7 10.6 11.6 72 2.8 SSW 35 44 19 24 1017.9 1017.7 10.4
21/06:30am 16.7 11.6 12.0 74 2.6 SSW 30 41 16 22 1017.7 1017.5 10.4
21/06:00am 16.7 11.6 13.0 79 2.1 SSW 32 39 17 21 1017.3 1017.1 10.4
21/05:30am 17.1 12.1 14.0 82 1.8 SSW 33 46 18 25 1016.8 1016.6 10.4
21/05:00am 16.7 10.6 14.0 84 1.5 SSW 39 46 21 25 1016.6 1016.4 10.4
21/04:30am 16.7 11.1 14.5 87 1.3 SSW 37 44 20 24 1016.5 1016.3 10.4
21/04:00am 16.7 11.5 14.5 87 1.3 SSW 35 43 19 23 1016.6 1016.4 10.4
21/03:30am 16.5 11.2 14.3 87 1.3 SSW 35 46 19 25 1016.8 1016.6 10.4
21/03:00am 16.9 11.1 14.9 88 1.2 SSW 39 50 21 27 1016.7 1016.5 10.4
21/02:30am 17.4 11.0 15.4 88 1.2 S 43 56 23 30 1016.6 1016.4 10.4
21/02:00am 17.5 12.0 15.7 89 1.1 S 39 50 21 27 1017.0 1016.8 10.4
21/01:30am 17.0 12.1 15.2 89 1.1 SSW 35 46 19 25 1017.4 1017.2 10.4
21/01:00am 17.2 10.8 15.5 90 1.0 S 43 56 23 30 1017.2 1017.0 10.4
21/12:30am 16.6 11.1 15.8 95 0.5 SSW 39 50 21 27 1017.5 1017.3 10.4
21/12:00am 16.4 10.9 15.8 96 0.4 SSW 39 46 21 25 1017.9 1017.7 10.4
 
Date/Time
EST
Temp
°C
App
Temp
°C
Dew
Point
°C
Rel
Hum
%
Delta-T
°C
Wind Press
QNH
hPa
Press
MSL
hPa
Rain since
9am
mm
Dir  Spd
km/h
Gust
km/h
Spd
kts
Gust
kts
20/11:30pm 17.2 11.6 16.6 96 0.4 S 41 50 22 27 1018.1 1017.9 10.4
20/11:00pm 17.3 11.7 16.5 95 0.5 S 41 50 22 27 1018.2 1018.0 10.4
20/10:30pm 17.4 11.9 16.8 96 0.4 S 41 48 22 26 1018.5 1018.3 10.4
20/10:00pm 16.6 10.2 16.0 96 0.4 SSE 44 54 24 29 1018.8 1018.6 10.4
20/09:38pm 17.4 13.0 16.6 95 0.5 S 35 56 19 30 1018.8 1018.6 10.4
20/09:30pm 17.0 12.4 16.2 95 0.5 SSW 35 50 19 27 1019.0 1018.8 10.4
20/09:00pm 17.3 11.8 16.8 97 0.3 S 41 56 22 30 1018.7 1018.5 10.4
20/08:30pm 17.1 11.6 16.8 98 0.2 S 41 52 22 28 1018.8 1018.6 10.2
20/08:00pm 16.8 10.6 16.5 98 0.2 SSE 44 57 24 31 1018.9 1018.7 10.2
20/07:30pm 17.4 11.5 17.1 98 0.2 SSE 44 52 24 28 1019.0 1018.8 8.8
20/07:25pm 17.0 10.8 16.5 97 0.3 SSE 44 54 24 29 1019.1 1018.9 8.2
20/07:00pm 17.1 13.3 16.6 97 0.3 S 32 48 17 26 1019.0 1018.8 4.2
20/06:30pm 16.8 12.3 16.3 97 0.3 SSW 35 43 19 23 1018.8 1018.6 4.2
20/06:00pm 16.8 11.5 16.2 96 0.4 S 39 48 21 26 1018.6 1018.4 4.2
20/05:30pm 17.2 11.3 16.7 97 0.3 SSE 43 50 23 27 1018.2 1018.0 4.2
20/05:00pm 17.3 11.4 16.7 96 0.4 S 43 52 23 28 1018.1 1017.9 3.4
20/04:30pm 17.0 11.4 16.4 96 0.4 SSE 41 50 22 27 1018.1 1017.9 3.2
20/04:00pm 17.4 11.2 16.3 93 0.7 S 44 56 24 30 1017.7 1017.5 2.4
20/03:30pm 16.9 11.2 16.3 96 0.4 SSE 41 50 22 27 1017.8 1017.6 2.4
20/03:00pm 16.7 10.0 16.2 97 0.3 S 46 57 25 31 1017.8 1017.6 2.4
20/02:30pm 16.8 11.1 16.2 96 0.4 SSE 41 52 22 28 1017.8 1017.6 2.2
20/02:00pm 17.0 11.2 16.0 94 0.6 S 41 54 22 29 1018.0 1017.8 1.6
20/01:30pm 16.4 9.5 15.6 95 0.5 S 46 63 25 34 1018.2 1018.0 1.6
20/01:00pm 16.2 9.2 15.4 95 0.5 S 46 59 25 32 1018.1 1017.9 1.6
20/12:30pm 16.3 8.5 15.3 94 0.6 S 50 61 27 33 1018.4 1018.2 1.4
20/12:00pm 17.2 11.2 16.4 95 0.5 S 43 56 23 30 1018.9 1018.7 1.4
20/11:30am 17.0 10.4 16.4 96 0.4 S 46 57 25 31 1019.2 1019.0 1.4
20/11:00am 17.1 11.5 16.6 97 0.3 S 41 54 22 29 1019.8 1019.6 1.4
20/10:30am 16.9 10.8 16.6 98 0.2 SSE 44 56 24 30 1020.0 1019.8 1.4
20/10:09am 16.9 11.3 16.6 98 0.2 S 41 61 22 33 1019.8 1019.6 1.4
20/10:00am 16.4 10.0 15.9 97 0.3 S 44 57 24 31 1020.1 1019.9 1.0
20/09:30am 16.4 9.2 15.8 96 0.4 S 48 59 26 32 1019.7 1019.5 0.6
20/09:00am 16.4 9.5 15.6 95 0.5 S 46 56 25 30 1019.8 1019.6 7.0
20/08:30am 16.6 9.8 15.8 95 0.5 S 46 61 25 33 1019.5 1019.3 7.0
20/08:00am 16.2 8.9 15.6 96 0.4 S 48 61 26 33 1019.3 1019.1 6.2
20/07:50am 16.1 11.3 15.5 96 0.4 SSW 35 57 19 31 1019.2 1019.0 5.8
20/07:30am 15.8 10.1 15.2 96 0.3 SSW 39 50 21 27 1019.1 1018.9 3.8
20/07:00am 16.3 10.6 15.3 94 0.6 SSW 39 50 21 27 1018.6 1018.4 2.2
20/06:35am 16.3 11.9 15.2 93 0.6 SSW 32 50 17 27 1018.6 1018.4 1.6
20/06:30am 15.8 11.0 14.5 92 0.7 SSW 33 48 18 26 1018.7 1018.5 1.4
20/06:00am 17.1 11.1 15.4 90 1.0 S 41 54 22 29 1018.2 1018.0 0.2
20/05:30am 17.1 11.4 15.3 89 1.1 S 39 50 21 27 1017.9 1017.7 0.2
20/05:00am 17.3 10.8 15.5 89 1.1 S 44 56 24 30 1017.4 1017.2 0.2
20/04:30am 16.5 10.8 15.2 92 0.8 SSW 39 48 21 26 1017.4 1017.2 0.2
20/04:00am 17.3 11.7 15.6 90 1.0 S 39 50 21 27 1017.3 1017.1 0.0
20/03:30am 17.1 11.9 15.6 91 0.9 S 37 46 20 25 1017.7 1017.5 0.0
20/03:00am 16.8 12.5 15.3 91 0.9 SSW 32 41 17 22 1017.7 1017.5 0.0
20/02:30am 17.1 12.8 15.4 90 1.0 SSW 32 37 17 20 1017.9 1017.7 0.0
20/02:00am 17.2 14.1 15.5 90 1.0 S 26 32 14 17 1018.1 1017.9 0.0
20/01:30am 17.0 14.1 15.0 88 1.2 SSW 24 30 13 16 1018.2 1018.0 0.0
20/01:00am 17.1 13.8 14.9 87 1.3 SSW 26 30 14 16 1018.5 1018.3 0.0
20/12:30am 17.3 13.8 14.6 84 1.6 SSW 26 28 14 15 1018.6 1018.4 0.0
20/12:00am 17.7 14.7 14.8 83 1.7 SSW 24 28 13 15 1018.6 1018.4 0.0
 
Date/Time
EST
Temp
°C
App
Temp
°C
Dew
Point
°C
Rel
Hum
%
Delta-T
°C
Wind Press
QNH
hPa
Press
MSL
hPa
Rain since
9am
mm
Dir  Spd
km/h
Gust
km/h
Spd
kts
Gust
kts
19/11:30pm 18.6 16.0 13.9 74 2.7 S 20 24 11 13 1018.9 1018.7 0.0
19/11:00pm 19.3 16.4 12.8 66 3.7 SSE 20 24 11 13 1019.0 1018.8 0.0
19/10:30pm 19.6 16.5 12.1 62 4.2 SSE 20 26 11 14 1019.3 1019.1 0.0
19/10:00pm 19.6 16.4 11.9 61 4.3 SSE 20 26 11 14 1019.3 1019.1 0.0
19/09:30pm 19.7 16.7 12.5 63 4.1 SSE 20 24 11 13 1019.3 1019.1 0.0
19/09:00pm 19.6 16.5 12.1 62 4.2 SSE 20 26 11 14 1019.2 1019.0 0.0
19/08:30pm 19.6 16.1 12.1 62 4.2 SSE 22 26 12 14 1019.0 1018.8 0.0
19/08:00pm 19.5 16.5 11.8 61 4.3 SSE 19 24 10 13 1019.0 1018.8 0.0
19/07:30pm 19.6 16.5 12.1 62 4.2 SSE 20 24 11 13 1019.1 1018.9 0.0
19/07:00pm 19.6 16.6 12.4 63 4.0 SE 20 26 11 14 1018.9 1018.7 0.0
19/06:30pm 19.6 16.2 11.4 59 4.5 SSE 20 24 11 13 1018.7 1018.5 0.0
19/06:00pm 19.5 15.1 10.5 56 4.9 SSE 24 28 13 15 1018.3 1018.1 0.0
19/05:30pm 19.5 15.3 11.0 58 4.7 SE 24 28 13 15 1018.0 1017.8 0.0
19/05:00pm 19.5 15.0 10.2 55 5.0 SSE 24 30 13 16 1017.7 1017.5 0.0
19/04:30pm 19.6 15.2 10.3 55 5.0 SSE 24 28 13 15 1017.5 1017.3 0.0
19/04:00pm 19.6 15.3 9.5 52 5.4 SSE 22 26 12 14 1017.4 1017.2 0.0
19/03:30pm 19.6 16.1 10.9 57 4.8 SSE 20 24 11 13 1017.3 1017.1 0.0
19/03:00pm 19.8 16.2 10.5 55 5.0 SSE 20 24 11 13 1016.9 1016.7 0.0
19/02:30pm 19.8 16.3 11.0 57 4.8 SSE 20 24 11 13 1016.7 1016.5 0.0
19/02:00pm 19.8 16.1 10.2 54 5.2 SSE 20 24 11 13 1016.9 1016.7 0.0
19/01:30pm 20.0 16.7 11.0 56 4.9 SSE 19 24 10 13 1017.1 1016.9 0.0
19/01:00pm 19.9 17.0 10.9 56 4.9 S 17 22 9 12 1017.1 1016.9 0.0
19/12:30pm 20.2 16.7 10.3 53 5.4 S 19 22 10 12 1017.5 1017.3 0.0
19/12:00pm 20.1 16.5 9.9 52 5.5 S 19 22 10 12 1017.7 1017.5 0.0
19/11:30am 19.8 16.0 9.1 50 5.7 S 19 24 10 13 1018.0 1017.8 0.0
19/11:00am 19.7 16.0 9.3 51 5.5 S 19 24 10 13 1018.4 1018.2 0.0
19/10:30am 19.6 16.3 9.5 52 5.4 S 17 20 9 11 1018.7 1018.5 0.0
19/10:00am 19.2 15.2 9.1 52 5.3 S 20 26 11 14 1018.7 1018.5 0.0
19/09:30am 19.1 15.2 9.6 54 5.1 S 20 24 11 13 1018.6 1018.4 0.0
19/09:00am 18.5 15.1 9.0 54 5.0 S 17 22 9 12 1018.7 1018.5 0.0
19/08:30am 18.1 15.3 8.4 53 5.0 SSW 13 17 7 9 1018.4 1018.2 0.0
19/08:00am 17.6 14.0 6.8 49 5.4 SSW 15 19 8 10 1017.9 1017.7 0.0
19/07:30am 16.9 13.2 6.4 50 5.2 SSW 15 17 8 9 1017.7 1017.5 0.0
19/07:00am 16.8 13.2 6.6 51 5.0 S 15 17 8 9 1017.5 1017.3 0.0
19/06:30am 16.4 13.0 5.7 49 5.2 SSW 13 15 7 8 1017.2 1017.0 0.0
19/06:00am 16.4 12.3 6.0 50 5.1 SSW 17 17 9 9 1016.7 1016.5 0.0
19/05:30am 16.6 12.1 5.9 49 5.2 SSW 19 20 10 11 1016.5 1016.3 0.0
19/05:00am 16.8 12.0 5.4 47 5.5 SSW 20 22 11 12 1016.3 1016.1 0.0
19/04:30am 16.6 11.7 5.3 47 5.4 SSW 20 24 11 13 1016.1 1015.9 0.0
19/04:00am 17.2 12.0 3.8 41 6.3 WSW 20 22 11 12 1016.1 1015.9 0.0
19/03:30am 16.8 11.5 4.8 45 5.7 WSW 22 24 12 13 1016.1 1015.9 0.0
19/03:00am 16.8 11.6 5.7 48 5.4 W 22 28 12 15 1016.3 1016.1 0.0
19/02:30am 16.3 11.1 5.6 49 5.2 W 22 32 12 17 1016.4 1016.2 0.0
19/02:00am 16.2 11.4 7.4 56 4.4 WNW 22 26 12 14 1016.5 1016.3 0.0
19/01:30am 16.2 11.6 6.6 53 4.7 WNW 20 24 11 13 1016.6 1016.4 0.0
19/01:00am 16.3 12.0 8.0 58 4.2 WNW 20 26 11 14 1016.9 1016.7 0.0
19/12:30am 16.5 12.5 9.2 62 3.8 W 20 24 11 13 1017.1 1016.9 0.0
19/12:00am 16.6 13.2 9.3 62 3.8 WNW 17 20 9 11 1017.3 1017.1 0.0
 
Date/Time
EST
Temp
°C
App
Temp
°C
Dew
Point
°C
Rel
Hum
%
Delta-T
°C
Wind Press
QNH
hPa
Press
MSL
hPa
Rain since
9am
mm
Dir  Spd
km/h
Gust
km/h
Spd
kts
Gust
kts
18/11:30pm 17.0 14.5 9.7 62 3.8 SSE 13 15 7 8 1017.6 1017.4 0.0
18/11:00pm 17.1 15.2 10.5 65 3.5 SSE 11 13 6 7 1017.7 1017.5 0.0
18/10:30pm 17.0 15.2 10.8 67 3.3 SSE 11 11 6 6 1017.9 1017.7 0.0
18/10:00pm 17.3 15.4 9.2 59 4.2 SSE 9 9 5 5 1017.9 1017.7 0.0
18/09:30pm 17.2 15.8 9.4 60 4.1 SSE 7 9 4 5 1017.8 1017.6 0.0
18/09:00pm 17.2 16.2 7.5 53 4.9 SSE 2 7 1 4 1017.8 1017.6 0.0
18/08:30pm 17.3 17.1 9.0 58 4.3 CALM 0 0 0 0 1017.8 1017.6 0.0
18/08:00pm 17.3 17.1 9.0 58 4.3 CALM 0 0 0 0 1017.8 1017.6 0.0
18/07:30pm 17.3 16.9 8.2 55 4.7 CALM 0 0 0 0 1017.7 1017.5 0.0
18/07:00pm 17.2 15.6 7.8 54 4.8 SSE 6 7 3 4 1017.7 1017.5 0.0
18/06:30pm 17.0 15.3 7.6 54 4.7 SSE 6 7 3 4 1017.3 1017.1 0.0
18/06:00pm 16.8 14.9 7.7 55 4.6 SSE 7 9 4 5 1017.0 1016.8 0.0
18/05:30pm 17.2 15.4 7.3 52 5.0 SSE 6 9 3 5 1016.7 1016.5 0.0
18/05:00pm 17.6 16.2 7.1 50 5.3 SSE 4 9 2 5 1016.4 1016.2 0.0
18/04:30pm 18.6 17.0 8.0 50 5.5 SSE 6 9 3 5 1016.2 1016.0 0.0
18/04:00pm 18.3 17.5 8.3 52 5.2 SSE 2 9 1 5 1016.1 1015.9 0.0
18/03:30pm 18.5 16.4 8.2 51 5.3 SSE 9 13 5 7 1015.8 1015.6 0.0
18/03:00pm 18.6 17.0 8.6 52 5.2 SSE 7 9 4 5 1015.6 1015.4 0.0
18/02:30pm 18.9 17.4 8.6 51 5.4 SSE 6 9 3 5 1015.5 1015.3 0.0
18/02:00pm 19.3 17.3 7.1 45 6.2 SSE 7 9 4 5 1015.7 1015.5 0.0
18/01:30pm 19.2 17.1 8.2 49 5.7 SSE 9 11 5 6 1015.9 1015.7 0.0
18/01:00pm 19.2 17.5 8.5 50 5.6 SSE 7 13 4 7 1016.3 1016.1 0.0
18/12:30pm 19.2 17.5 8.2 49 5.7 SSE 7 11 4 6 1016.6 1016.4 0.0
18/12:00pm 18.9 16.5 8.6 51 5.4 SSE 11 13 6 7 1016.9 1016.7 0.0
18/11:30am 18.7 16.3 8.7 52 5.2 SSE 11 15 6 8 1017.3 1017.1 0.0
18/11:00am 18.6 15.7 8.3 51 5.3 S 13 17 7 9 1017.7 1017.5 0.0
18/10:30am 18.3 15.4 8.3 52 5.2 S 13 17 7 9 1018.0 1017.8 0.0
18/10:00am 18.1 15.3 8.7 54 4.9 S 13 17 7 9 1018.2 1018.0 0.0
18/09:30am 17.6 14.6 7.9 53 4.9 S 13 17 7 9 1018.4 1018.2 0.0
18/09:00am 17.2 14.4 7.0 51 5.1 SSW 11 17 6 9 1018.4 1018.2 0.2
18/08:30am 16.6 12.9 6.1 50 5.1 SSW 15 17 8 9 1018.2 1018.0 0.2
18/08:00am 16.0 11.8 5.6 50 5.0 SSW 17 19 9 10 1017.8 1017.6 0.2
18/07:30am 15.4 11.6 5.6 52 4.7 SSW 15 20 8 11 1017.6 1017.4 0.2

Latest Capital City Observations: Canberra | Sydney | Melbourne | Brisbane | Adelaide | Perth | Hobart | Darwin

Other formats

Comma delimited format used in spreadsheet applications
http://www.bom.gov.au/fwo/IDQ60901/IDQ60901.94584.axf

JavaScript Object Notation format (JSON) in row-major order
http://www.bom.gov.au/fwo/IDQ60901/IDQ60901.94584.json

Data quality

Most of these data are generated automatically and are frequently updated. Quality checks on data are not normally performed. It is possible for incorrect values to appear. Refer to information at About Latest Weather Observations and please check the disclaimer before using these data.